Time;durP1;ratioP1;P1;durP2;ratioP2;P2;SDS_P1;SDS_P2;PMS_P1;PMS_P2;Temp;Humidity;BMP_temperature;BMP_pressure;BME280_temperature;BME280_humidity;BME280_pressure;Samples;Min_cycle;Max_cycle;Signal;HPM_P1;HPM_P2
2021/12/08 00:00:58;;;;;;;0.20;0.20;;;5.60;94.40;4.00;99143.00;;;;31136390;28;20090;-74
2021/12/08 00:16:09;;;;;;;0.30;0.30;;;5.20;94.80;4.00;99150.00;;;;31143503;28;20041;-74
2021/12/08 00:31:10;;;;;;;0.20;0.20;;;5.20;94.70;4.00;99107.00;;;;31158143;28;20045;-74
2021/12/08 00:46:12;;;;;;;0.20;0.20;;;5.30;95.10;4.10;99135.00;;;;31150479;28;20045;-74
2021/12/08 01:01:13;;;;;;;0.22;0.22;;;5.30;95.10;4.10;99137.00;;;;31151604;28;20057;-74
2021/12/08 01:16:17;;;;;;;0.20;0.20;;;6.50;96.10;4.10;99151.00;;;;31145129;28;20037;-74
2021/12/08 01:31:18;;;;;;;0.32;0.32;;;5.40;95.60;4.20;99159.00;;;;31128765;28;20056;-75
2021/12/08 01:46:22;;;;;;;1.55;1.42;;;5.50;95.90;4.40;99162.00;;;;31128685;28;20042;-75
2021/12/08 02:01:27;;;;;;;0.20;0.20;;;5.60;95.60;4.50;99165.00;;;;31136721;28;20769;-75
2021/12/08 02:16:33;;;;;;;0.20;0.20;;;5.80;95.80;4.70;99165.00;;;;31140562;28;20045;-76
2021/12/08 02:31:45;;;;;;;0.13;0.13;;;5.90;95.60;4.80;99191.00;;;;31137816;28;20577;-74
2021/12/08 02:47:07;;;;;;;0.20;0.20;;;6.00;96.20;4.90;99203.00;;;;31119926;28;20052;-75
2021/12/08 03:02:11;;;;;;;0.20;0.20;;;6.30;96.00;5.10;99221.00;;;;31143868;28;20049;-76
2021/12/08 03:17:15;;;;;;;0.20;0.20;;;6.30;95.70;5.30;99215.00;;;;31122871;28;20045;-74
2021/12/08 03:32:29;;;;;;;0.28;0.28;;;6.60;95.50;5.40;99237.00;;;;31156448;28;20057;-76
2021/12/08 03:47:38;;;;;;;0.20;0.20;;;6.60;95.80;5.50;99243.00;;;;31135953;28;20599;-75
2021/12/08 04:02:39;;;;;;;0.30;0.30;;;6.70;95.30;5.60;99257.00;;;;31155780;28;20586;-75
2021/12/08 04:34:29;;;;;;;0.20;0.20;;;6.80;94.60;5.60;99287.00;;;;31129629;28;20119;-75
2021/12/08 05:05:17;;;;;;;0.20;0.20;;;6.60;94.60;5.20;99278.00;;;;31161049;28;20045;-76
2021/12/08 05:20:37;;;;;;;0.30;0.30;;;6.20;94.90;5.00;99314.00;;;;31160283;28;20037;-75
2021/12/08 05:35:41;;;;;;;0.20;0.20;;;6.20;94.00;4.90;99336.00;;;;31155937;28;20605;-77
2021/12/08 05:51:04;;;;;;;0.20;0.20;;;6.10;93.40;5.00;99346.00;;;;31159251;28;20053;-75
2021/12/08 06:06:06;;;;;;;0.20;0.20;;;6.30;93.00;5.10;99357.00;;;;31136721;28;20057;-76
2021/12/08 06:21:13;;;;;;;0.30;0.30;;;6.30;92.70;5.10;99357.00;;;;31143514;28;20042;-76
2021/12/08 06:36:25;;;;;;;0.30;0.30;;;6.30;92.50;5.10;99390.00;;;;31154996;28;20132;-76
2021/12/08 06:51:42;;;;;;;0.20;0.20;;;6.30;93.20;5.10;99399.00;;;;31144678;28;20128;-76
2021/12/08 07:06:59;;;;;;;0.23;0.23;;;6.30;92.20;5.10;99402.00;;;;31139516;28;20046;-76
2021/12/08 07:22:06;;;;;;;0.20;0.20;;;6.30;92.30;5.10;99419.00;;;;31139705;28;20516;-76
2021/12/08 07:37:14;;;;;;;1.23;1.13;;;6.20;92.40;4.90;99461.00;;;;31162176;28;20161;-76
2021/12/08 07:52:35;;;;;;;0.20;0.20;;;6.10;91.90;4.70;99468.00;;;;31164628;28;20508;-76
2021/12/08 08:07:37;;;;;;;0.20;0.20;;;5.90;91.90;4.60;99470.00;;;;31154369;28;20500;-75
2021/12/08 08:22:38;;;;;;;0.30;0.30;;;5.80;91.70;4.70;99488.00;;;;31129711;28;20067;-75
2021/12/08 08:37:41;;;;;;;0.20;0.20;;;5.90;91.30;4.80;99500.00;;;;31159415;28;20072;-74
2021/12/08 08:52:49;;;;;;;0.20;0.20;;;6.00;91.30;4.90;99502.00;;;;31156560;28;20595;-75
2021/12/08 09:08:04;;;;;;;0.65;0.65;;;6.00;91.00;5.00;99502.00;;;;31156993;28;20172;-74
2021/12/08 09:23:24;;;;;;;0.25;0.25;;;6.70;90.90;5.20;99519.00;;;;31157890;28;20049;-75
2021/12/08 09:38:40;;;;;;;0.20;0.20;;;6.40;90.20;5.30;99515.00;;;;31155297;28;20053;-75
2021/12/08 09:53:45;;;;;;;0.20;0.20;;;6.50;90.20;5.40;99520.00;;;;31147551;28;20063;-74
2021/12/08 10:08:58;;;;;;;0.37;0.37;;;6.60;90.00;5.50;99512.00;;;;31150914;28;20073;-74
2021/12/08 10:24:22;;;;;;;0.20;0.20;;;6.80;89.30;5.60;99485.00;;;;31145604;28;20847;-75
2021/12/08 10:39:46;;;;;;;0.20;0.20;;;6.80;89.80;5.70;99472.00;;;;31153090;28;20497;-76
2021/12/08 10:54:49;;;;;;;0.57;0.57;;;6.90;88.40;6.10;99494.00;;;;31151216;28;20042;-76
2021/12/08 11:09:52;;;;;;;0.20;0.20;;;7.20;88.30;6.40;99505.00;;;;31178261;28;20041;-75
2021/12/08 11:24:57;;;;;;;0.20;0.20;;;7.60;86.00;6.60;99531.00;;;;31177541;28;20529;-75
2021/12/08 11:40:01;;;;;;;0.27;0.27;;;7.60;87.10;6.60;99548.00;;;;31181099;28;20103;-75
2021/12/08 11:55:12;;;;;;;0.20;0.20;;;7.60;84.90;6.50;99572.00;;;;31155489;28;20072;-75
2021/12/08 12:10:18;;;;;;;0.20;0.20;;;7.60;85.00;6.40;99586.00;;;;31168041;28;20599;-75
2021/12/08 12:25:46;;;;;;;1.10;1.10;;;7.50;84.00;6.30;99610.00;;;;31145230;28;20559;-75
2021/12/08 12:40:53;;;;;;;0.28;0.28;;;7.50;85.60;6.30;99621.00;;;;31162261;28;20051;-75
2021/12/08 12:55:54;;;;;;;0.20;0.20;;;7.40;84.40;6.30;99633.00;;;;31156570;28;20057;-74
2021/12/08 13:10:56;;;;;;;0.13;0.13;;;7.40;84.40;6.40;99629.00;;;;31155444;28;20053;-75
2021/12/08 13:26:05;;;;;;;0.20;0.20;;;7.50;84.10;6.40;99643.00;;;;31154255;28;20253;-75
2021/12/08 13:41:15;;;;;;;0.30;0.30;;;7.50;84.50;6.40;99667.00;;;;31148188;28;20128;-76
2021/12/08 13:56:16;;;;;;;0.20;0.20;;;7.40;84.00;6.20;99663.00;;;;31159898;28;20134;-76
2021/12/08 14:11:23;;;;;;;0.30;0.30;;;7.20;84.30;6.00;99676.00;;;;31146989;28;20552;-75
2021/12/08 14:26:31;;;;;;;0.30;0.30;;;7.00;85.00;5.80;99679.00;;;;31163522;28;20049;-75
2021/12/08 14:41:37;;;;;;;0.30;0.30;;;6.90;85.60;5.60;99704.00;;;;31146963;28;20123;-76
2021/12/08 14:56:57;;;;;;;0.93;0.93;;;6.70;86.30;5.50;99710.00;;;;31155413;28;20053;-76
2021/12/08 15:12:20;;;;;;;0.20;0.20;;;6.60;86.70;5.40;99740.00;;;;31146597;28;20045;-75
2021/12/08 15:27:21;;;;;;;0.30;0.30;;;6.50;87.10;5.10;99746.00;;;;31135289;28;20450;-74
2021/12/08 15:42:24;;;;;;;0.30;0.30;;;6.20;87.70;4.90;99751.00;;;;31156305;28;20045;-74
2021/12/08 15:57:28;;;;;;;0.20;0.20;;;6.60;88.40;4.70;99756.00;;;;31156964;28;20596;-75
2021/12/08 16:12:38;;;;;;;0.20;0.20;;;5.80;88.90;4.50;99760.00;;;;31163270;28;20390;-76
2021/12/08 16:27:40;;;;;;;0.30;0.30;;;5.80;89.00;4.30;99778.00;;;;31138052;28;20055;-77
2021/12/08 16:43:03;;;;;;;0.25;0.25;;;5.50;89.80;4.10;99797.00;;;;31184551;28;20106;-77
2021/12/08 16:58:08;;;;;;;0.20;0.20;;;5.40;90.40;3.80;99824.00;;;;31125439;28;20049;-77
2021/12/08 17:13:13;;;;;;;0.20;0.20;;;5.00;90.40;3.60;99824.00;;;;31141688;28;20041;-77
2021/12/08 17:28:16;;;;;;;0.30;0.30;;;4.90;90.60;3.50;99830.00;;;;31147204;28;20071;-77
2021/12/08 17:43:17;;;;;;;0.40;0.40;;;4.80;91.20;3.40;99839.00;;;;31137487;28;20056;-77
2021/12/08 17:58:19;;;;;;;0.20;0.20;;;4.70;90.90;3.30;99836.00;;;;31135248;28;20068;-77
2021/12/08 18:13:21;;;;;;;0.30;0.30;;;4.60;91.10;3.20;99843.00;;;;31124608;28;20062;-78
2021/12/08 18:28:24;;;;;;;0.20;0.20;;;4.60;92.40;3.10;99864.00;;;;31120826;28;20170;-78
2021/12/08 18:43:33;;;;;;;0.30;0.30;;;5.50;93.20;2.90;99884.00;;;;31121655;28;20406;-78
2021/12/08 18:58:35;;;;;;;0.30;0.30;;;4.30;91.80;2.80;99893.00;;;;31116031;28;20082;-78
2021/12/08 19:13:37;;;;;;;0.20;0.20;;;4.00;91.60;2.60;99901.00;;;;31147018;28;20046;-77
2021/12/08 19:28:40;;;;;;;0.32;0.32;;;4.50;92.40;2.50;99912.00;;;;31182605;28;20049;-77
2021/12/08 19:43:41;;;;;;;0.20;0.20;;;3.90;91.80;2.40;99923.00;;;;31156745;28;20200;-77
2021/12/08 19:58:47;;;;;;;0.20;0.20;;;3.80;92.00;2.40;99948.00;;;;31170935;28;20053;-77
2021/12/08 20:13:50;;;;;;;0.30;0.30;;;3.80;92.10;2.30;99963.00;;;;31140400;28;20528;-77
2021/12/08 20:28:54;;;;;;;0.50;0.50;;;3.70;92.10;2.30;99970.00;;;;31122546;28;20059;-77
2021/12/08 20:43:58;;;;;;;0.20;0.20;;;3.70;92.10;2.30;99975.00;;;;31147199;28;20353;-77
2021/12/08 20:59:02;;;;;;;0.40;0.40;;;3.60;92.20;2.20;99983.00;;;;31150383;28;20052;-77
2021/12/08 21:14:04;;;;;;;0.32;0.32;;;3.60;92.30;2.20;99984.00;;;;31143162;28;20042;-77
2021/12/08 21:29:07;;;;;;;0.22;0.22;;;3.50;92.40;2.10;99991.00;;;;31144049;28;20050;-77
2021/12/08 21:44:09;;;;;;;0.22;0.22;;;3.50;93.30;2.00;99999.00;;;;31143772;28;20505;-77
2021/12/08 21:59:11;;;;;;;0.22;0.22;;;3.30;92.60;1.90;100000.00;;;;31154948;28;20053;-77
2021/12/08 22:14:13;;;;;;;0.30;0.30;;;4.30;93.00;1.80;100018.00;;;;31141689;28;20053;-77
2021/12/08 22:29:14;;;;;;;0.30;0.30;;;3.20;93.30;1.80;100019.00;;;;31136182;28;20049;-77
2021/12/08 22:44:15;;;;;;;0.25;0.25;;;3.90;93.60;1.70;100035.00;;;;31134275;28;20049;-77
2021/12/08 22:59:18;;;;;;;0.30;0.30;;;3.10;93.40;1.60;100044.00;;;;31102413;28;20041;-75
2021/12/08 23:14:20;;;;;;;0.93;0.93;;;3.00;92.90;1.60;100057.00;;;;31138636;28;20050;-75
2021/12/08 23:29:46;;;;;;;0.20;0.20;;;3.10;93.60;1.50;100052.00;;;;31134559;28;20038;-75
2021/12/08 23:44:48;;;;;;;0.30;0.30;;;2.90;93.80;1.50;100077.00;;;;31136512;28;20049;-75
2021/12/08 23:59:52;;;;;;;0.38;0.38;;;2.90;93.30;1.40;100063.00;;;;31141237;28;20560;-75
